createdAt,value
2022-10-16T00:00:59.935Z,80.45
2022-10-16T00:03:30.291Z,80.32
2022-10-16T00:06:01.904Z,79.60
2022-10-16T00:08:29.854Z,79.68
2022-10-16T00:11:03.858Z,82.71
2022-10-16T00:13:32.187Z,83.90
2022-10-16T00:16:01.140Z,84.02
2022-10-16T00:18:29.288Z,84.27
2022-10-16T00:20:57.566Z,83.72
2022-10-16T00:23:25.266Z,82.49
2022-10-16T00:26:00.115Z,83.72
2022-10-16T00:28:29.600Z,84.60
2022-10-16T00:30:58.182Z,84.57
2022-10-16T00:33:27.300Z,82.68
2022-10-16T00:35:54.982Z,82.05
2022-10-16T00:38:22.668Z,80.79
2022-10-16T00:40:50.367Z,81.14
2022-10-16T00:43:38.874Z,82.89
2022-10-16T00:46:12.841Z,83.10
2022-10-16T00:48:40.835Z,83.35
2022-10-16T00:51:09.552Z,87.88
2022-10-16T00:53:37.628Z,85.65
2022-10-16T00:56:06.136Z,85.05
2022-10-16T00:58:34.117Z,84.62
2022-10-16T01:01:03.250Z,86.87
2022-10-16T01:03:33.389Z,88.67
2022-10-16T01:06:11.294Z,90.98
2022-10-16T01:08:50.590Z,90.54
2022-10-16T01:11:26.625Z,88.88
2022-10-16T01:13:57.809Z,91.27
2022-10-16T01:16:33.900Z,89.05
2022-10-16T01:19:11.456Z,87.35
2022-10-16T01:21:44.541Z,84.85
2022-10-16T01:24:29.123Z,86.75
2022-10-16T01:27:08.611Z,86.64
2022-10-16T01:29:41.484Z,86.27
2022-10-16T01:32:18.243Z,86.30
2022-10-16T01:34:51.472Z,86.71
2022-10-16T01:37:25.195Z,86.41
2022-10-16T01:39:58.083Z,87.46
2022-10-16T01:42:33.268Z,88.94
2022-10-16T01:45:02.485Z,86.91
2022-10-16T01:47:33.641Z,85.19
2022-10-16T01:50:03.241Z,86.57
2022-10-16T01:52:31.832Z,85.23
2022-10-16T01:55:02.479Z,84.94
2022-10-16T01:57:38.039Z,86.51
2022-10-16T02:00:12.432Z,85.54
2022-10-16T02:02:42.214Z,83.94
2022-10-16T02:05:16.934Z,83.20
2022-10-16T02:07:44.912Z,82.32
2022-10-16T02:10:13.019Z,82.33
2022-10-16T02:12:46.511Z,82.73
2022-10-16T02:15:14.175Z,82.24
2022-10-16T02:17:41.847Z,82.32
2022-10-16T02:20:10.450Z,81.60
2022-10-16T02:22:43.068Z,82.06
2022-10-16T02:25:15.327Z,81.37
2022-10-16T02:27:51.190Z,80.83
2022-10-16T02:30:28.146Z,80.51
2022-10-16T02:32:56.598Z,80.61
2022-10-16T02:35:26.204Z,80.54
2022-10-16T02:37:55.030Z,80.40
2022-10-16T02:40:25.327Z,80.24
2022-10-16T02:42:55.680Z,80.04
2022-10-16T02:45:26.300Z,80.40
2022-10-16T02:47:54.233Z,80.86
2022-10-16T02:50:22.342Z,80.07
2022-10-16T02:52:50.262Z,80.03
2022-10-16T02:55:17.988Z,80.60
2022-10-16T02:57:45.795Z,81.30
2022-10-16T03:00:17.542Z,80.58
2022-10-16T03:02:45.795Z,80.52
2022-10-16T03:05:16.592Z,80.63
2022-10-16T03:07:44.319Z,80.96
2022-10-16T03:10:12.040Z,80.92
2022-10-16T03:12:39.737Z,81.23
2022-10-16T03:15:08.305Z,81.23
2022-10-16T03:17:37.626Z,81.45
2022-10-16T03:20:06.122Z,81.00
2022-10-16T03:22:34.203Z,81.36
2022-10-16T03:25:01.932Z,81.13
2022-10-16T03:27:29.914Z,80.71
2022-10-16T03:29:58.018Z,81.06
2022-10-16T03:32:26.331Z,81.41
2022-10-16T03:34:57.306Z,80.70
2022-10-16T03:37:25.847Z,81.37
2022-10-16T03:39:54.051Z,81.50
2022-10-16T03:42:21.738Z,80.70
2022-10-16T03:44:49.407Z,81.60
2022-10-16T03:47:21.507Z,80.98
2022-10-16T03:49:49.315Z,81.08
2022-10-16T03:54:51.408Z,80.66
2022-10-16T03:57:19.434Z,81.11
2022-10-16T03:59:47.110Z,81.72
2022-10-16T04:02:14.852Z,81.84
2022-10-16T04:04:42.580Z,82.07
2022-10-16T04:07:12.694Z,81.74
2022-10-16T04:09:43.907Z,81.82
2022-10-16T04:12:11.585Z,81.22
2022-10-16T04:14:39.260Z,81.94
2022-10-16T04:17:07.028Z,81.67
2022-10-16T04:19:34.724Z,81.63
2022-10-16T04:22:02.459Z,82.02
2022-10-16T04:24:30.267Z,81.69
2022-10-16T04:27:01.541Z,82.01
2022-10-16T04:29:29.379Z,81.11
2022-10-16T04:31:57.135Z,81.90
2022-10-16T04:34:24.997Z,80.96
2022-10-16T04:36:52.701Z,81.60
2022-10-16T04:39:20.537Z,82.15
2022-10-16T04:41:48.295Z,82.91
2022-10-16T04:44:19.442Z,82.92
2022-10-16T04:46:47.172Z,83.12
2022-10-16T04:49:14.874Z,83.09
2022-10-16T04:51:42.580Z,82.40
2022-10-16T04:54:10.834Z,82.53
2022-10-16T04:56:44.216Z,83.04
2022-10-16T04:59:11.934Z,82.64
2022-10-16T05:01:40.984Z,82.14
2022-10-16T05:04:08.773Z,81.92
2022-10-16T05:06:36.569Z,81.73
2022-10-16T05:09:04.752Z,83.17
2022-10-16T05:11:34.796Z,83.10
2022-10-16T05:14:02.960Z,82.40
2022-10-16T05:16:31.204Z,82.02
2022-10-16T05:21:47.979Z,82.38
2022-10-16T05:24:16.068Z,82.11
2022-10-16T05:26:43.955Z,82.24
2022-10-16T05:29:11.649Z,82.02
2022-10-16T05:31:41.758Z,82.35
2022-10-16T05:34:10.933Z,83.20
2022-10-16T05:36:38.826Z,83.17
2022-10-16T05:39:06.503Z,83.34
2022-10-16T05:41:34.283Z,83.20
2022-10-16T05:44:06.296Z,83.13
2022-10-16T05:46:34.721Z,82.27
2022-10-16T05:49:02.394Z,82.86
2022-10-16T05:51:31.493Z,82.25
2022-10-16T05:53:59.145Z,82.10
2022-10-16T05:56:26.824Z,82.21
2022-10-16T05:58:56.635Z,82.11
2022-10-16T06:01:25.184Z,81.97
2022-10-16T06:03:53.864Z,82.04
2022-10-16T06:06:23.704Z,81.74
2022-10-16T06:08:56.531Z,81.54
2022-10-16T06:11:29.048Z,82.51
2022-10-16T06:13:59.084Z,82.87
2022-10-16T06:16:27.775Z,82.13
2022-10-16T06:18:56.716Z,82.91
2022-10-16T06:21:26.696Z,82.56
2022-10-16T06:23:56.705Z,82.07
2022-10-16T06:26:27.120Z,81.83
2022-10-16T06:28:57.277Z,81.55
2022-10-16T06:31:28.402Z,81.70
2022-10-16T06:33:57.142Z,81.86
2022-10-16T06:36:25.636Z,82.64
2022-10-16T06:38:55.198Z,83.31
2022-10-16T06:41:24.361Z,83.04
2022-10-16T06:43:53.077Z,84.34
2022-10-16T06:46:23.052Z,83.79
2022-10-16T06:48:51.208Z,83.36
2022-10-16T06:51:20.437Z,82.71
2022-10-16T06:54:05.671Z,81.97
2022-10-16T06:56:35.517Z,81.70
2022-10-16T06:59:04.689Z,82.58
2022-10-16T07:01:32.623Z,81.22
2022-10-16T07:04:00.468Z,81.67
2022-10-16T07:06:29.029Z,81.58
2022-10-16T07:08:57.090Z,80.82
2022-10-16T07:11:25.987Z,80.88
2022-10-16T07:13:57.434Z,81.01
2022-10-16T07:16:27.943Z,80.55
2022-10-16T07:18:59.628Z,80.66
2022-10-16T07:21:29.715Z,80.81
2022-10-16T07:23:59.650Z,80.60
2022-10-16T07:26:29.149Z,80.05
2022-10-16T07:28:58.902Z,80.47
2022-10-16T07:31:27.202Z,80.06
2022-10-16T07:33:55.351Z,80.79
2022-10-16T07:36:25.373Z,80.26
2022-10-16T07:38:58.709Z,81.36
2022-10-16T07:41:28.728Z,81.66
2022-10-16T07:44:01.883Z,81.54
2022-10-16T07:46:30.200Z,83.00
2022-10-16T07:48:58.055Z,82.39
2022-10-16T07:51:27.610Z,81.88
2022-10-16T07:53:56.070Z,80.95
2022-10-16T07:56:23.954Z,80.85
2022-10-16T07:58:52.423Z,81.15
2022-10-16T08:01:21.812Z,81.94
2022-10-16T08:03:51.830Z,80.77
2022-10-16T08:06:23.422Z,81.54
2022-10-16T08:08:54.706Z,80.63
2022-10-16T08:11:22.584Z,79.36
2022-10-16T08:13:50.318Z,79.94
2022-10-16T08:16:18.247Z,79.88
2022-10-16T08:18:48.441Z,78.80
2022-10-16T08:21:20.375Z,79.63
2022-10-16T08:23:54.489Z,78.89
2022-10-16T08:26:27.391Z,78.26
2022-10-16T08:28:55.886Z,77.57
2022-10-16T08:31:23.910Z,77.23
2022-10-16T08:33:53.480Z,76.58
2022-10-16T08:36:21.707Z,77.92
2022-10-16T08:38:51.422Z,78.40
2022-10-16T08:41:56.920Z,77.94
2022-10-16T08:44:47.806Z,76.54
2022-10-16T08:47:19.945Z,76.26
2022-10-16T08:49:59.128Z,76.31
2022-10-16T08:52:32.784Z,75.90
2022-10-16T08:55:01.581Z,75.54
2022-10-16T08:57:30.067Z,75.24
2022-10-16T09:00:02.565Z,75.47
2022-10-16T09:02:34.497Z,76.01
2022-10-16T09:05:21.725Z,75.62
2022-10-16T09:08:05.545Z,75.12
2022-10-16T09:10:45.504Z,75.04
2022-10-16T09:13:23.001Z,74.44
2022-10-16T09:15:57.822Z,73.98
2022-10-16T09:18:32.944Z,72.48
2022-10-16T09:21:09.475Z,72.28
2022-10-16T09:23:39.168Z,70.70
2022-10-16T09:26:11.812Z,70.92
2022-10-16T09:28:39.750Z,70.83
2022-10-16T09:31:07.756Z,71.13
2022-10-16T09:33:38.458Z,71.24
2022-10-16T09:36:13.529Z,70.49
2022-10-16T09:38:41.207Z,70.04
2022-10-16T09:41:17.432Z,69.83
2022-10-16T09:43:51.659Z,70.46
2022-10-16T09:46:27.310Z,71.48
2022-10-16T09:48:58.203Z,71.83
2022-10-16T09:51:31.689Z,72.24
2022-10-16T09:54:02.297Z,71.53
2022-10-16T09:56:33.417Z,71.66
2022-10-16T09:59:03.229Z,70.35
2022-10-16T10:01:37.562Z,70.81
2022-10-16T10:04:06.370Z,69.05
2022-10-16T10:06:39.205Z,68.58
2022-10-16T10:09:17.364Z,69.05
2022-10-16T10:11:51.618Z,70.06
2022-10-16T10:14:25.664Z,68.96
2022-10-16T10:16:55.362Z,69.15
2022-10-16T10:19:28.004Z,69.01
2022-10-16T10:22:00.121Z,68.83
2022-10-16T10:24:27.854Z,69.09
2022-10-16T10:27:02.855Z,68.49
2022-10-16T10:29:49.511Z,66.35
2022-10-16T10:32:29.755Z,64.45
2022-10-16T10:35:13.238Z,66.61
2022-10-16T10:38:04.252Z,65.93
2022-10-16T10:40:41.763Z,64.36
2022-10-16T10:43:23.238Z,63.31
2022-10-16T10:45:56.238Z,65.05
2022-10-16T10:48:43.113Z,63.08
2022-10-16T10:51:18.876Z,62.53
2022-10-16T10:53:57.913Z,62.83
2022-10-16T10:56:44.303Z,60.02
2022-10-16T10:59:31.612Z,60.55
2022-10-16T11:02:06.719Z,57.62
2022-10-16T11:05:00.076Z,58.45
2022-10-16T11:07:32.070Z,55.73
2022-10-16T11:10:05.872Z,56.72
2022-10-16T11:12:39.039Z,56.33
2022-10-16T11:15:15.500Z,57.38
2022-10-16T11:17:46.918Z,56.88
2022-10-16T11:20:20.004Z,55.91
2022-10-16T11:22:53.680Z,55.02
2022-10-16T11:25:27.868Z,54.42
2022-10-16T11:28:02.319Z,55.21
2022-10-16T11:30:31.723Z,54.35
2022-10-16T11:33:11.349Z,52.16
2022-10-16T11:35:49.909Z,52.60
2022-10-16T11:38:28.124Z,51.89
2022-10-16T11:41:02.894Z,50.45
2022-10-16T11:43:36.721Z,51.39
2022-10-16T11:46:11.184Z,51.35
2022-10-16T11:48:44.976Z,51.69
2022-10-16T11:51:21.806Z,51.65
2022-10-16T11:53:55.619Z,50.78
2022-10-16T11:56:24.950Z,50.78
2022-10-16T11:58:58.616Z,51.50
2022-10-16T12:01:33.972Z,48.83
2022-10-16T12:04:16.667Z,52.71
2022-10-16T12:06:49.552Z,51.02
2022-10-16T12:09:26.962Z,50.99
2022-10-16T12:11:56.150Z,50.10
2022-10-16T12:14:51.690Z,52.46
2022-10-16T12:17:27.805Z,52.32
2022-10-16T12:20:15.267Z,52.52
2022-10-16T12:22:49.686Z,56.06
2022-10-16T12:25:23.736Z,54.99
2022-10-16T12:27:59.246Z,56.57
2022-10-16T12:30:32.288Z,57.40
2022-10-16T12:33:05.734Z,55.06
2022-10-16T12:35:45.911Z,54.12
2022-10-16T12:38:21.969Z,53.51
2022-10-16T12:40:59.921Z,55.54
2022-10-16T12:43:38.073Z,54.89
2022-10-16T12:46:23.038Z,53.62
2022-10-16T12:49:06.106Z,52.58
2022-10-16T12:51:37.266Z,54.63
2022-10-16T12:54:07.236Z,54.72
2022-10-16T12:56:46.543Z,53.97
2022-10-16T12:59:27.465Z,53.78
2022-10-16T13:02:13.655Z,53.64
2022-10-16T13:05:16.825Z,54.94
2022-10-16T13:07:58.531Z,54.06
2022-10-16T13:10:35.057Z,56.12
2022-10-16T13:13:25.991Z,56.49
2022-10-16T13:16:05.333Z,55.38
2022-10-16T13:18:46.664Z,53.73
2022-10-16T13:21:34.012Z,54.27
2022-10-16T13:24:14.921Z,53.44
2022-10-16T13:26:51.857Z,54.83
2022-10-16T13:29:21.719Z,54.78
2022-10-16T13:31:51.380Z,56.25
2022-10-16T13:34:22.665Z,56.59
2022-10-16T13:36:54.112Z,56.62
2022-10-16T13:39:25.085Z,56.67
2022-10-16T13:42:09.132Z,55.88
2022-10-16T13:44:43.424Z,55.94
2022-10-16T13:47:19.771Z,56.13
2022-10-16T13:49:48.208Z,55.84
2022-10-16T13:52:20.859Z,55.55
2022-10-16T13:54:49.130Z,56.74
2022-10-16T13:57:26.762Z,57.29
2022-10-16T13:59:55.875Z,59.23
2022-10-16T14:02:31.830Z,59.05
2022-10-16T14:05:00.545Z,61.84
2022-10-16T14:07:31.112Z,64.74
2022-10-16T14:10:04.200Z,64.95
2022-10-16T14:12:32.681Z,66.13
2022-10-16T14:15:01.714Z,65.04
2022-10-16T14:17:34.406Z,65.70
2022-10-16T14:20:06.511Z,64.28
2022-10-16T14:22:39.255Z,63.70
2022-10-16T14:25:27.400Z,64.23
2022-10-16T14:28:06.444Z,65.96
2022-10-16T14:30:37.920Z,65.65
2022-10-16T14:33:22.278Z,65.75
2022-10-16T14:36:03.295Z,67.68
2022-10-16T14:38:31.520Z,66.85
2022-10-16T14:41:02.236Z,66.03
2022-10-16T14:43:35.239Z,66.00
2022-10-16T14:46:05.443Z,66.34
2022-10-16T14:48:34.914Z,66.51
2022-10-16T14:51:02.654Z,66.87
2022-10-16T14:53:30.454Z,66.02
2022-10-16T14:56:00.426Z,65.72
2022-10-16T14:58:28.162Z,66.89
2022-10-16T15:00:58.368Z,66.67
2022-10-16T15:03:26.198Z,66.68
2022-10-16T15:05:55.282Z,65.71
2022-10-16T15:08:25.158Z,65.08
2022-10-16T15:10:53.334Z,65.25
2022-10-16T15:13:21.175Z,66.36
2022-10-16T15:15:51.487Z,66.83
2022-10-16T15:18:21.371Z,67.29
2022-10-16T15:20:52.068Z,66.92
2022-10-16T15:25:53.878Z,67.25
2022-10-16T15:28:23.127Z,68.79
2022-10-16T15:30:52.584Z,69.64
2022-10-16T15:33:24.593Z,68.61
2022-10-16T15:35:55.496Z,69.17
2022-10-16T15:38:25.011Z,69.44
2022-10-16T15:40:52.788Z,69.42
2022-10-16T15:43:20.819Z,69.80
2022-10-16T15:46:00.611Z,70.10
2022-10-16T15:48:28.477Z,69.71
2022-10-16T15:50:56.594Z,69.88
2022-10-16T15:53:25.994Z,69.18
2022-10-16T15:55:56.185Z,69.45
2022-10-16T15:58:23.934Z,70.09
2022-10-16T16:00:57.536Z,70.32
2022-10-16T16:03:26.074Z,69.69
2022-10-16T16:05:53.831Z,70.55
2022-10-16T16:08:21.788Z,72.02
2022-10-16T16:11:00.875Z,71.73
2022-10-16T16:13:28.954Z,72.03
2022-10-16T16:15:56.764Z,72.35
2022-10-16T16:18:24.763Z,73.38
2022-10-16T16:20:52.723Z,74.76
2022-10-16T16:23:23.283Z,75.23
2022-10-16T16:26:11.865Z,75.89
2022-10-16T16:28:40.892Z,76.25
2022-10-16T16:31:09.959Z,76.00
2022-10-16T16:33:40.175Z,76.14
2022-10-16T16:36:14.548Z,77.05
2022-10-16T16:38:43.436Z,77.19
2022-10-16T16:41:16.170Z,76.66
2022-10-16T16:43:44.472Z,77.41
2022-10-16T16:46:12.769Z,78.13
2022-10-16T16:48:40.703Z,80.16
2022-10-16T16:51:10.394Z,80.18
2022-10-16T16:53:38.755Z,81.41
2022-10-16T16:56:07.650Z,83.12
2022-10-16T16:58:36.836Z,84.66
2022-10-16T17:01:21.785Z,82.43
2022-10-16T17:03:52.556Z,81.10
2022-10-16T17:06:22.175Z,80.63
2022-10-16T17:08:51.114Z,80.76
2022-10-16T17:11:21.240Z,83.93
2022-10-16T17:13:56.429Z,83.14
2022-10-16T17:16:29.837Z,81.85
2022-10-16T17:18:57.823Z,81.18
2022-10-16T17:21:26.857Z,83.18
2022-10-16T17:23:54.616Z,82.14
2022-10-16T17:26:22.316Z,83.10
2022-10-16T17:28:55.745Z,83.05
2022-10-16T17:31:27.585Z,81.91
2022-10-16T17:33:55.308Z,81.94
2022-10-16T17:36:23.974Z,82.04
2022-10-16T17:38:52.440Z,82.05
2022-10-16T17:41:23.987Z,81.59
2022-10-16T17:43:54.185Z,81.66
2022-10-16T17:46:23.799Z,81.67
2022-10-16T17:48:56.199Z,81.54
2022-10-16T17:51:31.342Z,82.47
2022-10-16T17:54:00.570Z,87.33
2022-10-16T17:56:29.167Z,85.25
2022-10-16T17:59:00.624Z,84.43
2022-10-16T18:01:31.394Z,85.24
2022-10-16T18:04:01.019Z,86.28
2022-10-16T18:06:29.689Z,85.16
2022-10-16T18:08:59.103Z,85.68
2022-10-16T18:11:27.954Z,86.76
2022-10-16T18:13:59.097Z,90.83
2022-10-16T18:16:29.294Z,88.81
2022-10-16T18:18:58.374Z,86.90
2022-10-16T18:21:28.206Z,86.17
2022-10-16T18:23:57.243Z,89.51
2022-10-16T18:26:25.010Z,91.33
2022-10-16T18:28:54.406Z,88.95
2022-10-16T18:31:26.138Z,87.82
2022-10-16T18:33:54.009Z,89.26
2022-10-16T18:36:23.463Z,89.57
2022-10-16T18:38:51.830Z,91.69
2022-10-16T18:41:20.374Z,92.29
2022-10-16T18:43:48.413Z,91.14
2022-10-16T18:46:18.258Z,91.67
2022-10-16T18:48:48.399Z,94.25
2022-10-16T18:51:18.796Z,92.73
2022-10-16T18:53:50.048Z,91.93
2022-10-16T18:56:19.347Z,92.76
2022-10-16T18:58:49.285Z,91.06
2022-10-16T19:01:20.895Z,93.48
2022-10-16T19:03:50.471Z,94.53
2022-10-16T19:06:18.283Z,95.29
2022-10-16T19:08:46.190Z,97.28
2022-10-16T19:11:17.025Z,95.96
2022-10-16T19:13:48.590Z,97.05
2022-10-16T19:16:20.995Z,96.59
2022-10-16T19:18:51.751Z,95.42
2022-10-16T19:21:20.369Z,95.69
2022-10-16T19:23:52.746Z,96.89
2022-10-16T19:26:23.492Z,96.00
2022-10-16T19:28:53.222Z,95.35
2022-10-16T19:31:22.594Z,95.79
2022-10-16T19:33:54.564Z,96.23
2022-10-16T19:36:24.894Z,96.69
2022-10-16T19:38:55.526Z,97.37
2022-10-16T19:41:24.598Z,97.63
2022-10-16T19:43:53.264Z,97.88
2022-10-16T19:46:26.585Z,97.67
2022-10-16T19:49:00.542Z,97.47
2022-10-16T19:51:29.616Z,96.52
2022-10-16T19:53:58.791Z,96.90
2022-10-16T19:56:28.374Z,95.96
2022-10-16T19:58:57.753Z,95.41
2022-10-16T20:01:27.464Z,95.99
2022-10-16T20:03:55.939Z,97.14
2022-10-16T20:06:25.679Z,96.86
2022-10-16T20:08:55.564Z,95.57
2022-10-16T20:11:25.535Z,96.19
2022-10-16T20:13:53.271Z,96.95
2022-10-16T20:16:21.120Z,97.19
2022-10-16T20:18:50.675Z,96.42
2022-10-16T20:21:20.022Z,96.05
2022-10-16T20:23:51.304Z,97.53
2022-10-16T20:26:22.191Z,97.64
2022-10-16T20:28:50.069Z,96.51
2022-10-16T20:31:23.457Z,96.68
2022-10-16T20:33:51.800Z,96.75
2022-10-16T20:36:21.568Z,96.77
2022-10-16T20:38:50.899Z,98.47
2022-10-16T20:41:19.387Z,99.83
2022-10-16T20:43:49.097Z,100.00
2022-10-16T20:46:19.118Z,100.00
2022-10-16T20:48:47.885Z,100.00
2022-10-16T20:51:17.623Z,99.85
2022-10-16T20:53:46.454Z,99.90
2022-10-16T20:56:17.406Z,97.76
2022-10-16T20:58:45.634Z,96.65
2022-10-16T21:01:15.198Z,97.80
2022-10-16T21:03:44.218Z,98.67
2022-10-16T21:06:13.981Z,99.21
2022-10-16T21:08:44.011Z,98.39
2022-10-16T21:11:16.595Z,99.51
2022-10-16T21:13:46.833Z,99.97
2022-10-16T21:16:15.546Z,100.00
2022-10-16T21:18:44.733Z,100.00
2022-10-16T21:21:21.435Z,100.00
2022-10-16T21:23:49.908Z,98.83
2022-10-16T21:26:18.832Z,96.81
2022-10-16T21:28:47.975Z,99.75
2022-10-16T21:31:18.836Z,98.46
2022-10-16T21:33:46.767Z,97.83
2022-10-16T21:36:15.919Z,98.05
2022-10-16T21:38:43.887Z,97.86
2022-10-16T21:41:16.247Z,98.42
2022-10-16T21:43:46.268Z,98.55
2022-10-16T21:46:16.167Z,100.00
2022-10-16T21:48:47.020Z,100.00
2022-10-16T21:51:15.586Z,100.00
2022-10-16T21:53:43.459Z,98.40
2022-10-16T21:56:15.524Z,97.60
2022-10-16T21:58:43.434Z,97.12
2022-10-16T22:01:13.083Z,97.22
2022-10-16T22:03:42.677Z,97.76
2022-10-16T22:06:11.748Z,98.71
2022-10-16T22:08:41.260Z,96.83
2022-10-16T22:11:12.246Z,98.90
2022-10-16T22:13:40.832Z,97.88
2022-10-16T22:16:09.334Z,98.41
2022-10-16T22:18:42.000Z,98.72
2022-10-16T22:21:14.347Z,97.74
2022-10-16T22:23:42.038Z,96.00
2022-10-16T22:26:12.672Z,94.78
2022-10-16T22:28:43.181Z,94.76
2022-10-16T22:31:13.458Z,93.20
2022-10-16T22:33:42.223Z,92.30
2022-10-16T22:36:14.201Z,95.21
2022-10-16T22:38:42.362Z,94.17
2022-10-16T22:41:12.035Z,93.63
2022-10-16T22:43:42.709Z,93.82
2022-10-16T22:46:13.405Z,93.48
2022-10-16T22:48:41.657Z,94.83
2022-10-16T22:51:15.614Z,94.42
2022-10-16T22:53:49.139Z,93.74
2022-10-16T22:56:18.683Z,93.79
2022-10-16T22:58:46.454Z,93.84
2022-10-16T23:01:17.636Z,92.54
2022-10-16T23:03:45.583Z,93.58
2022-10-16T23:06:13.332Z,93.43
2022-10-16T23:08:41.472Z,93.41
2022-10-16T23:11:13.557Z,93.12
2022-10-16T23:13:45.350Z,95.65
2022-10-16T23:16:15.360Z,94.64
2022-10-16T23:18:44.867Z,95.97
2022-10-16T23:21:14.832Z,96.14
2022-10-16T23:23:43.428Z,96.43
2022-10-16T23:26:14.651Z,96.17
2022-10-16T23:28:42.917Z,95.57
2022-10-16T23:31:11.632Z,94.81
2022-10-16T23:33:40.413Z,94.31
2022-10-16T23:36:12.548Z,94.31
2022-10-16T23:38:40.644Z,93.93
2022-10-16T23:41:08.729Z,93.68
2022-10-16T23:43:38.010Z,93.11
2022-10-16T23:46:06.574Z,93.31
2022-10-16T23:48:35.028Z,93.20
2022-10-16T23:51:02.836Z,94.75
2022-10-16T23:53:30.926Z,94.60
2022-10-16T23:55:58.713Z,93.83
2022-10-16T23:58:26.919Z,92.95
